sensor_id;sensor_type;location;lat;lon;timestamp;P1;durP1;ratioP1;P2;durP2;ratioP2
50249;SDS011;36133;42.522;27.456;2022-08-19T00:01:40;26.77;;;22.95;;
50249;SDS011;36133;42.522;27.456;2022-08-19T00:04:08;26.17;;;23.13;;
50249;SDS011;36133;42.522;27.456;2022-08-19T00:06:35;29.95;;;22.92;;
50249;SDS011;36133;42.522;27.456;2022-08-19T00:09:03;33.03;;;24.40;;
50249;SDS011;36133;42.522;27.456;2022-08-19T00:11:31;31.13;;;25.00;;
50249;SDS011;36133;42.522;27.456;2022-08-19T00:13:56;31.67;;;25.27;;
50249;SDS011;36133;42.522;27.456;2022-08-19T00:16:22;30.13;;;24.30;;
50249;SDS011;36133;42.522;27.456;2022-08-19T00:18:49;28.50;;;23.42;;
50249;SDS011;36133;42.522;27.456;2022-08-19T00:21:15;29.60;;;23.55;;
50249;SDS011;36133;42.522;27.456;2022-08-19T00:23:41;30.25;;;23.92;;
50249;SDS011;36133;42.522;27.456;2022-08-19T00:26:08;33.90;;;24.63;;
50249;SDS011;36133;42.522;27.456;2022-08-19T00:28:35;27.80;;;23.38;;
50249;SDS011;36133;42.522;27.456;2022-08-19T00:31:04;27.63;;;22.45;;
50249;SDS011;36133;42.522;27.456;2022-08-19T00:33:32;29.13;;;20.83;;
50249;SDS011;36133;42.522;27.456;2022-08-19T00:36:03;25.77;;;20.60;;
50249;SDS011;36133;42.522;27.456;2022-08-19T00:38:31;25.40;;;20.25;;
50249;SDS011;36133;42.522;27.456;2022-08-19T00:40:57;31.05;;;21.00;;
50249;SDS011;36133;42.522;27.456;2022-08-19T00:43:24;26.38;;;19.48;;
50249;SDS011;36133;42.522;27.456;2022-08-19T00:45:52;26.48;;;19.30;;
50249;SDS011;36133;42.522;27.456;2022-08-19T00:48:18;23.55;;;19.67;;
50249;SDS011;36133;42.522;27.456;2022-08-19T00:50:45;23.27;;;18.90;;
50249;SDS011;36133;42.522;27.456;2022-08-19T00:53:14;23.25;;;17.67;;
50249;SDS011;36133;42.522;27.456;2022-08-19T00:55:47;27.35;;;18.95;;
50249;SDS011;36133;42.522;27.456;2022-08-19T00:58:16;26.15;;;18.15;;
50249;SDS011;36133;42.522;27.456;2022-08-19T01:00:43;26.58;;;19.60;;
50249;SDS011;36133;42.522;27.456;2022-08-19T01:03:12;20.92;;;18.67;;
50249;SDS011;36133;42.522;27.456;2022-08-19T01:05:41;23.65;;;20.00;;
50249;SDS011;36133;42.522;27.456;2022-08-19T01:08:08;25.45;;;19.95;;
50249;SDS011;36133;42.522;27.456;2022-08-19T01:10:36;23.17;;;19.27;;
50249;SDS011;36133;42.522;27.456;2022-08-19T01:13:05;25.30;;;20.13;;
50249;SDS011;36133;42.522;27.456;2022-08-19T01:15:35;23.15;;;19.20;;
50249;SDS011;36133;42.522;27.456;2022-08-19T01:18:08;21.58;;;18.98;;
50249;SDS011;36133;42.522;27.456;2022-08-19T01:20:37;28.52;;;19.90;;
50249;SDS011;36133;42.522;27.456;2022-08-19T01:23:05;23.05;;;20.45;;
50249;SDS011;36133;42.522;27.456;2022-08-19T01:25:32;24.77;;;19.48;;
50249;SDS011;36133;42.522;27.456;2022-08-19T01:28:02;22.42;;;19.15;;
50249;SDS011;36133;42.522;27.456;2022-08-19T01:30:30;24.55;;;19.42;;
50249;SDS011;36133;42.522;27.456;2022-08-19T01:32:57;23.10;;;18.45;;
50249;SDS011;36133;42.522;27.456;2022-08-19T01:35:27;25.00;;;19.52;;
50249;SDS011;36133;42.522;27.456;2022-08-19T01:37:56;23.33;;;19.23;;
50249;SDS011;36133;42.522;27.456;2022-08-19T01:40:25;23.30;;;20.02;;
50249;SDS011;36133;42.522;27.456;2022-08-19T01:42:55;29.25;;;21.13;;
50249;SDS011;36133;42.522;27.456;2022-08-19T01:45:21;25.60;;;19.83;;
50249;SDS011;36133;42.522;27.456;2022-08-19T01:47:49;23.48;;;19.60;;
50249;SDS011;36133;42.522;27.456;2022-08-19T01:50:15;24.05;;;19.20;;
50249;SDS011;36133;42.522;27.456;2022-08-19T01:52:41;27.42;;;18.95;;
50249;SDS011;36133;42.522;27.456;2022-08-19T01:55:10;22.45;;;19.15;;
50249;SDS011;36133;42.522;27.456;2022-08-19T01:57:40;26.85;;;19.00;;
50249;SDS011;36133;42.522;27.456;2022-08-19T02:00:10;26.80;;;19.73;;
50249;SDS011;36133;42.522;27.456;2022-08-19T02:02:39;23.65;;;18.85;;
50249;SDS011;36133;42.522;27.456;2022-08-19T02:05:05;25.38;;;20.13;;
50249;SDS011;36133;42.522;27.456;2022-08-19T02:07:33;26.15;;;19.17;;
50249;SDS011;36133;42.522;27.456;2022-08-19T02:10:01;25.17;;;19.73;;
50249;SDS011;36133;42.522;27.456;2022-08-19T02:12:35;23.95;;;20.67;;
50249;SDS011;36133;42.522;27.456;2022-08-19T02:15:01;25.58;;;20.35;;
50249;SDS011;36133;42.522;27.456;2022-08-19T02:17:28;25.02;;;20.98;;
50249;SDS011;36133;42.522;27.456;2022-08-19T02:19:54;28.67;;;21.50;;
50249;SDS011;36133;42.522;27.456;2022-08-19T02:22:24;28.40;;;20.77;;
50249;SDS011;36133;42.522;27.456;2022-08-19T02:24:51;27.70;;;22.67;;
50249;SDS011;36133;42.522;27.456;2022-08-19T02:27:17;26.60;;;21.80;;
50249;SDS011;36133;42.522;27.456;2022-08-19T02:29:42;28.00;;;23.20;;
50249;SDS011;36133;42.522;27.456;2022-08-19T02:32:08;28.67;;;22.90;;
50249;SDS011;36133;42.522;27.456;2022-08-19T02:34:34;27.35;;;21.75;;
50249;SDS011;36133;42.522;27.456;2022-08-19T02:36:59;30.40;;;22.90;;
50249;SDS011;36133;42.522;27.456;2022-08-19T02:39:25;26.15;;;23.35;;
50249;SDS011;36133;42.522;27.456;2022-08-19T02:41:51;34.85;;;23.77;;
50249;SDS011;36133;42.522;27.456;2022-08-19T02:44:17;26.38;;;23.42;;
50249;SDS011;36133;42.522;27.456;2022-08-19T02:46:44;32.72;;;24.00;;
50249;SDS011;36133;42.522;27.456;2022-08-19T02:49:11;27.73;;;23.88;;
50249;SDS011;36133;42.522;27.456;2022-08-19T02:51:38;34.13;;;24.88;;
50249;SDS011;36133;42.522;27.456;2022-08-19T02:54:06;29.52;;;24.25;;
50249;SDS011;36133;42.522;27.456;2022-08-19T02:56:33;38.17;;;25.90;;
50249;SDS011;36133;42.522;27.456;2022-08-19T02:59:00;26.52;;;23.65;;
50249;SDS011;36133;42.522;27.456;2022-08-19T03:01:27;29.38;;;24.40;;
50249;SDS011;36133;42.522;27.456;2022-08-19T03:03:55;28.75;;;25.08;;
50249;SDS011;36133;42.522;27.456;2022-08-19T03:06:23;30.20;;;25.90;;
50249;SDS011;36133;42.522;27.456;2022-08-19T03:08:48;31.08;;;27.08;;
50249;SDS011;36133;42.522;27.456;2022-08-19T03:11:17;32.13;;;25.88;;
50249;SDS011;36133;42.522;27.456;2022-08-19T03:13:48;29.98;;;25.80;;
50249;SDS011;36133;42.522;27.456;2022-08-19T03:16:20;30.35;;;27.05;;
50249;SDS011;36133;42.522;27.456;2022-08-19T03:18:48;29.52;;;26.13;;
50249;SDS011;36133;42.522;27.456;2022-08-19T03:21:15;34.20;;;26.75;;
50249;SDS011;36133;42.522;27.456;2022-08-19T03:23:42;32.50;;;28.00;;
50249;SDS011;36133;42.522;27.456;2022-08-19T03:26:07;35.38;;;27.75;;
50249;SDS011;36133;42.522;27.456;2022-08-19T03:28:33;31.40;;;26.50;;
50249;SDS011;36133;42.522;27.456;2022-08-19T03:31:00;34.28;;;26.55;;
50249;SDS011;36133;42.522;27.456;2022-08-19T03:33:29;32.17;;;25.77;;
50249;SDS011;36133;42.522;27.456;2022-08-19T03:36:00;30.08;;;25.52;;
50249;SDS011;36133;42.522;27.456;2022-08-19T03:38:32;33.42;;;26.67;;
50249;SDS011;36133;42.522;27.456;2022-08-19T03:41:01;31.33;;;26.30;;
50249;SDS011;36133;42.522;27.456;2022-08-19T03:43:28;33.25;;;26.80;;
50249;SDS011;36133;42.522;27.456;2022-08-19T03:46:04;32.35;;;25.75;;
50249;SDS011;36133;42.522;27.456;2022-08-19T03:48:32;34.20;;;24.95;;
50249;SDS011;36133;42.522;27.456;2022-08-19T03:50:58;29.67;;;25.23;;
50249;SDS011;36133;42.522;27.456;2022-08-19T03:53:25;27.23;;;24.42;;
50249;SDS011;36133;42.522;27.456;2022-08-19T03:55:52;31.85;;;25.35;;
50249;SDS011;36133;42.522;27.456;2022-08-19T03:58:18;30.90;;;24.08;;
50249;SDS011;36133;42.522;27.456;2022-08-19T04:00:44;31.80;;;24.52;;
50249;SDS011;36133;42.522;27.456;2022-08-19T04:03:10;29.58;;;23.60;;
50249;SDS011;36133;42.522;27.456;2022-08-19T04:05:35;28.15;;;23.10;;
50249;SDS011;36133;42.522;27.456;2022-08-19T04:08:03;26.25;;;23.45;;
50249;SDS011;36133;42.522;27.456;2022-08-19T04:10:31;27.23;;;22.02;;
50249;SDS011;36133;42.522;27.456;2022-08-19T04:13:01;27.00;;;22.00;;
50249;SDS011;36133;42.522;27.456;2022-08-19T04:15:29;28.83;;;22.00;;
50249;SDS011;36133;42.522;27.456;2022-08-19T04:17:56;25.88;;;22.10;;
50249;SDS011;36133;42.522;27.456;2022-08-19T04:20:21;27.70;;;22.55;;
50249;SDS011;36133;42.522;27.456;2022-08-19T04:22:47;29.70;;;22.98;;
50249;SDS011;36133;42.522;27.456;2022-08-19T04:25:12;28.80;;;22.23;;
50249;SDS011;36133;42.522;27.456;2022-08-19T04:27:38;27.52;;;21.92;;
50249;SDS011;36133;42.522;27.456;2022-08-19T04:30:03;24.15;;;21.55;;
50249;SDS011;36133;42.522;27.456;2022-08-19T04:32:29;25.00;;;21.55;;
50249;SDS011;36133;42.522;27.456;2022-08-19T04:34:56;26.02;;;22.25;;
50249;SDS011;36133;42.522;27.456;2022-08-19T04:37:24;29.65;;;23.25;;
50249;SDS011;36133;42.522;27.456;2022-08-19T04:39:51;30.08;;;22.45;;
50249;SDS011;36133;42.522;27.456;2022-08-19T04:42:35;29.60;;;20.92;;
50249;SDS011;36133;42.522;27.456;2022-08-19T04:45:05;26.63;;;21.70;;
50249;SDS011;36133;42.522;27.456;2022-08-19T04:47:31;26.20;;;20.30;;
50249;SDS011;36133;42.522;27.456;2022-08-19T04:49:57;25.75;;;20.48;;
50249;SDS011;36133;42.522;27.456;2022-08-19T04:52:23;28.23;;;19.48;;
50249;SDS011;36133;42.522;27.456;2022-08-19T04:54:49;28.58;;;17.85;;
50249;SDS011;36133;42.522;27.456;2022-08-19T04:57:15;22.42;;;17.27;;
50249;SDS011;36133;42.522;27.456;2022-08-19T04:59:40;20.13;;;16.52;;
50249;SDS011;36133;42.522;27.456;2022-08-19T05:02:07;24.08;;;16.73;;
50249;SDS011;36133;42.522;27.456;2022-08-19T05:04:34;21.15;;;16.10;;
50249;SDS011;36133;42.522;27.456;2022-08-19T05:07:03;23.67;;;15.63;;
50249;SDS011;36133;42.522;27.456;2022-08-19T05:09:29;21.60;;;16.15;;
50249;SDS011;36133;42.522;27.456;2022-08-19T05:11:55;23.02;;;16.90;;
50249;SDS011;36133;42.522;27.456;2022-08-19T05:14:21;21.48;;;18.08;;
50249;SDS011;36133;42.522;27.456;2022-08-19T05:16:46;24.23;;;17.95;;
50249;SDS011;36133;42.522;27.456;2022-08-19T05:19:12;23.00;;;19.35;;
50249;SDS011;36133;42.522;27.456;2022-08-19T05:21:57;28.65;;;20.15;;
50249;SDS011;36133;42.522;27.456;2022-08-19T05:24:43;29.45;;;19.70;;
50249;SDS011;36133;42.522;27.456;2022-08-19T05:27:09;26.70;;;19.17;;
50249;SDS011;36133;42.522;27.456;2022-08-19T05:29:34;21.45;;;18.80;;
50249;SDS011;36133;42.522;27.456;2022-08-19T05:32:01;30.27;;;19.58;;
50249;SDS011;36133;42.522;27.456;2022-08-19T05:34:27;23.55;;;18.33;;
50249;SDS011;36133;42.522;27.456;2022-08-19T05:36:54;26.10;;;17.13;;
50249;SDS011;36133;42.522;27.456;2022-08-19T05:39:23;25.88;;;16.85;;
50249;SDS011;36133;42.522;27.456;2022-08-19T05:41:52;25.85;;;18.17;;
50249;SDS011;36133;42.522;27.456;2022-08-19T05:44:26;22.17;;;17.17;;
50249;SDS011;36133;42.522;27.456;2022-08-19T05:46:56;20.40;;;17.58;;
50249;SDS011;36133;42.522;27.456;2022-08-19T05:49:24;24.58;;;17.85;;
50249;SDS011;36133;42.522;27.456;2022-08-19T05:51:50;29.83;;;17.90;;
50249;SDS011;36133;42.522;27.456;2022-08-19T05:54:16;22.55;;;16.92;;
50249;SDS011;36133;42.522;27.456;2022-08-19T05:56:44;22.38;;;16.23;;
50249;SDS011;36133;42.522;27.456;2022-08-19T05:59:12;21.08;;;16.38;;
50249;SDS011;36133;42.522;27.456;2022-08-19T06:01:39;23.27;;;14.90;;
50249;SDS011;36133;42.522;27.456;2022-08-19T06:04:06;22.48;;;15.20;;
50249;SDS011;36133;42.522;27.456;2022-08-19T06:06:33;22.08;;;15.10;;
50249;SDS011;36133;42.522;27.456;2022-08-19T06:09:03;17.10;;;13.35;;
50249;SDS011;36133;42.522;27.456;2022-08-19T06:14:09;18.60;;;11.20;;
50249;SDS011;36133;42.522;27.456;2022-08-19T06:16:37;22.40;;;11.00;;
50249;SDS011;36133;42.522;27.456;2022-08-19T06:19:05;11.75;;;8.88;;
50249;SDS011;36133;42.522;27.456;2022-08-19T06:21:33;13.07;;;8.32;;
50249;SDS011;36133;42.522;27.456;2022-08-19T06:24:05;23.58;;;9.50;;
50249;SDS011;36133;42.522;27.456;2022-08-19T06:26:37;22.48;;;10.18;;
50249;SDS011;36133;42.522;27.456;2022-08-19T06:29:05;12.88;;;8.23;;
50249;SDS011;36133;42.522;27.456;2022-08-19T06:31:32;11.10;;;8.30;;
50249;SDS011;36133;42.522;27.456;2022-08-19T06:34:00;15.20;;;8.77;;
50249;SDS011;36133;42.522;27.456;2022-08-19T06:36:31;15.05;;;8.95;;
50249;SDS011;36133;42.522;27.456;2022-08-19T06:39:11;13.68;;;9.63;;
50249;SDS011;36133;42.522;27.456;2022-08-19T06:41:46;16.88;;;8.57;;
50249;SDS011;36133;42.522;27.456;2022-08-19T06:44:19;12.38;;;8.07;;
50249;SDS011;36133;42.522;27.456;2022-08-19T06:46:57;13.65;;;8.52;;
50249;SDS011;36133;42.522;27.456;2022-08-19T06:49:31;16.02;;;9.00;;
50249;SDS011;36133;42.522;27.456;2022-08-19T06:51:58;13.38;;;9.07;;
50249;SDS011;36133;42.522;27.456;2022-08-19T06:54:30;18.85;;;8.80;;
50249;SDS011;36133;42.522;27.456;2022-08-19T06:57:06;13.30;;;8.57;;
50249;SDS011;36133;42.522;27.456;2022-08-19T06:59:34;18.15;;;9.57;;
50249;SDS011;36133;42.522;27.456;2022-08-19T07:02:00;10.70;;;7.78;;
50249;SDS011;36133;42.522;27.456;2022-08-19T07:04:30;9.57;;;8.10;;
50249;SDS011;36133;42.522;27.456;2022-08-19T07:06:58;9.45;;;8.20;;
50249;SDS011;36133;42.522;27.456;2022-08-19T07:09:26;12.25;;;8.75;;
50249;SDS011;36133;42.522;27.456;2022-08-19T07:11:55;12.18;;;7.78;;
50249;SDS011;36133;42.522;27.456;2022-08-19T07:14:25;9.00;;;7.97;;
50249;SDS011;36133;42.522;27.456;2022-08-19T07:16:52;14.50;;;8.02;;
50249;SDS011;36133;42.522;27.456;2022-08-19T07:19:20;12.23;;;9.20;;
50249;SDS011;36133;42.522;27.456;2022-08-19T07:21:51;10.70;;;8.13;;
50249;SDS011;36133;42.522;27.456;2022-08-19T07:24:18;13.30;;;8.27;;
50249;SDS011;36133;42.522;27.456;2022-08-19T07:26:45;15.82;;;8.45;;
50249;SDS011;36133;42.522;27.456;2022-08-19T07:29:11;9.52;;;8.00;;
50249;SDS011;36133;42.522;27.456;2022-08-19T07:31:38;17.45;;;8.27;;
50249;SDS011;36133;42.522;27.456;2022-08-19T07:34:05;14.70;;;8.48;;
50249;SDS011;36133;42.522;27.456;2022-08-19T07:36:33;14.35;;;7.30;;
50249;SDS011;36133;42.522;27.456;2022-08-19T07:39:01;14.50;;;7.57;;
50249;SDS011;36133;42.522;27.456;2022-08-19T07:41:31;10.70;;;7.50;;
50249;SDS011;36133;42.522;27.456;2022-08-19T07:44:11;16.38;;;8.02;;
50249;SDS011;36133;42.522;27.456;2022-08-19T07:46:39;9.73;;;7.60;;
50249;SDS011;36133;42.522;27.456;2022-08-19T07:49:09;11.98;;;7.35;;
50249;SDS011;36133;42.522;27.456;2022-08-19T07:51:44;13.68;;;7.60;;
50249;SDS011;36133;42.522;27.456;2022-08-19T07:54:16;11.63;;;6.97;;
50249;SDS011;36133;42.522;27.456;2022-08-19T07:56:46;13.95;;;7.80;;
50249;SDS011;36133;42.522;27.456;2022-08-19T07:59:16;12.50;;;7.15;;
50249;SDS011;36133;42.522;27.456;2022-08-19T08:01:43;11.55;;;6.90;;
50249;SDS011;36133;42.522;27.456;2022-08-19T08:04:13;10.98;;;7.07;;
50249;SDS011;36133;42.522;27.456;2022-08-19T08:06:58;11.32;;;6.72;;
50249;SDS011;36133;42.522;27.456;2022-08-19T08:09:42;10.67;;;6.73;;
50249;SDS011;36133;42.522;27.456;2022-08-19T08:12:14;11.68;;;6.70;;
50249;SDS011;36133;42.522;27.456;2022-08-19T08:14:49;10.13;;;7.22;;
50249;SDS011;36133;42.522;27.456;2022-08-19T08:17:21;10.50;;;7.40;;
50249;SDS011;36133;42.522;27.456;2022-08-19T08:19:50;11.77;;;6.85;;
50249;SDS011;36133;42.522;27.456;2022-08-19T08:22:24;14.90;;;7.13;;
50249;SDS011;36133;42.522;27.456;2022-08-19T08:25:17;12.30;;;7.10;;
50249;SDS011;36133;42.522;27.456;2022-08-19T08:27:47;15.32;;;7.32;;
50249;SDS011;36133;42.522;27.456;2022-08-19T08:30:22;12.55;;;7.43;;
50249;SDS011;36133;42.522;27.456;2022-08-19T08:33:00;13.60;;;7.50;;
50249;SDS011;36133;42.522;27.456;2022-08-19T08:35:26;9.60;;;6.68;;
50249;SDS011;36133;42.522;27.456;2022-08-19T08:37:52;7.68;;;6.40;;
50249;SDS011;36133;42.522;27.456;2022-08-19T08:40:25;9.45;;;6.63;;
50249;SDS011;36133;42.522;27.456;2022-08-19T08:43:53;10.15;;;6.82;;
50249;SDS011;36133;42.522;27.456;2022-08-19T08:46:03;15.65;;;8.15;;
50249;SDS011;36133;42.522;27.456;2022-08-19T08:51:09;15.50;;;6.85;;
50249;SDS011;36133;42.522;27.456;2022-08-19T08:53:46;9.80;;;7.32;;
50249;SDS011;36133;42.522;27.456;2022-08-19T08:56:13;10.80;;;6.60;;
50249;SDS011;36133;42.522;27.456;2022-08-19T09:01:16;13.95;;;6.65;;
50249;SDS011;36133;42.522;27.456;2022-08-19T09:03:51;12.20;;;6.07;;
50249;SDS011;36133;42.522;27.456;2022-08-19T09:06:54;10.50;;;6.25;;
50249;SDS011;36133;42.522;27.456;2022-08-19T09:09:35;11.90;;;6.75;;
50249;SDS011;36133;42.522;27.456;2022-08-19T09:15:10;11.90;;;6.07;;
50249;SDS011;36133;42.522;27.456;2022-08-19T09:17:43;6.57;;;5.75;;
50249;SDS011;36133;42.522;27.456;2022-08-19T09:22:39;8.57;;;6.35;;
50249;SDS011;36133;42.522;27.456;2022-08-19T09:25:16;9.98;;;6.30;;
50249;SDS011;36133;42.522;27.456;2022-08-19T09:27:43;8.77;;;6.28;;
50249;SDS011;36133;42.522;27.456;2022-08-19T09:30:20;12.00;;;5.93;;
50249;SDS011;36133;42.522;27.456;2022-08-19T09:32:49;6.50;;;5.63;;
50249;SDS011;36133;42.522;27.456;2022-08-19T09:35:18;9.98;;;5.93;;
50249;SDS011;36133;42.522;27.456;2022-08-19T09:37:47;11.95;;;6.63;;
50249;SDS011;36133;42.522;27.456;2022-08-19T09:40:14;10.27;;;6.65;;
50249;SDS011;36133;42.522;27.456;2022-08-19T09:42:44;18.80;;;6.10;;
50249;SDS011;36133;42.522;27.456;2022-08-19T09:45:11;7.40;;;6.10;;
50249;SDS011;36133;42.522;27.456;2022-08-19T09:47:41;12.68;;;6.30;;
50249;SDS011;36133;42.522;27.456;2022-08-19T09:50:08;11.05;;;6.47;;
50249;SDS011;36133;42.522;27.456;2022-08-19T09:52:36;10.65;;;6.05;;
50249;SDS011;36133;42.522;27.456;2022-08-19T09:55:10;10.18;;;6.80;;
50249;SDS011;36133;42.522;27.456;2022-08-19T09:57:36;11.32;;;6.50;;
50249;SDS011;36133;42.522;27.456;2022-08-19T10:00:06;10.02;;;6.25;;
50249;SDS011;36133;42.522;27.456;2022-08-19T10:02:34;12.15;;;5.82;;
50249;SDS011;36133;42.522;27.456;2022-08-19T10:05:08;9.18;;;5.57;;
50249;SDS011;36133;42.522;27.456;2022-08-19T10:07:52;14.57;;;6.90;;
50249;SDS011;36133;42.522;27.456;2022-08-19T10:10:17;12.35;;;7.13;;
50249;SDS011;36133;42.522;27.456;2022-08-19T10:12:43;8.05;;;6.47;;
50249;SDS011;36133;42.522;27.456;2022-08-19T10:15:12;14.57;;;7.05;;
50249;SDS011;36133;42.522;27.456;2022-08-19T10:17:38;14.30;;;6.93;;
50249;SDS011;36133;42.522;27.456;2022-08-19T10:20:04;10.23;;;7.13;;
50249;SDS011;36133;42.522;27.456;2022-08-19T10:22:30;17.83;;;7.60;;
50249;SDS011;36133;42.522;27.456;2022-08-19T10:24:56;14.02;;;7.07;;
50249;SDS011;36133;42.522;27.456;2022-08-19T10:27:22;11.20;;;7.05;;
50249;SDS011;36133;42.522;27.456;2022-08-19T10:29:48;13.13;;;7.93;;
50249;SDS011;36133;42.522;27.456;2022-08-19T10:32:14;11.00;;;7.88;;
50249;SDS011;36133;42.522;27.456;2022-08-19T10:34:42;18.58;;;8.80;;
50249;SDS011;36133;42.522;27.456;2022-08-19T10:37:08;11.50;;;7.57;;
50249;SDS011;36133;42.522;27.456;2022-08-19T10:39:34;10.13;;;7.38;;
50249;SDS011;36133;42.522;27.456;2022-08-19T10:42:05;12.73;;;7.15;;
50249;SDS011;36133;42.522;27.456;2022-08-19T10:44:32;15.57;;;7.18;;
50249;SDS011;36133;42.522;27.456;2022-08-19T10:47:08;14.65;;;6.88;;
50249;SDS011;36133;42.522;27.456;2022-08-19T10:49:34;9.57;;;6.85;;
50249;SDS011;36133;42.522;27.456;2022-08-19T10:52:19;12.13;;;6.57;;
50249;SDS011;36133;42.522;27.456;2022-08-19T10:55:13;11.30;;;6.80;;
50249;SDS011;36133;42.522;27.456;2022-08-19T10:58:09;16.63;;;6.63;;
50249;SDS011;36133;42.522;27.456;2022-08-19T11:00:40;7.63;;;6.35;;
50249;SDS011;36133;42.522;27.456;2022-08-19T11:03:07;9.98;;;7.03;;
50249;SDS011;36133;42.522;27.456;2022-08-19T11:05:33;14.90;;;7.97;;
50249;SDS011;36133;42.522;27.456;2022-08-19T11:08:02;8.02;;;6.85;;
50249;SDS011;36133;42.522;27.456;2022-08-19T11:10:27;12.07;;;8.10;;
50249;SDS011;36133;42.522;27.456;2022-08-19T11:12:53;13.98;;;8.32;;
50249;SDS011;36133;42.522;27.456;2022-08-19T11:15:19;10.38;;;8.23;;
50249;SDS011;36133;42.522;27.456;2022-08-19T11:17:50;14.57;;;7.68;;
50249;SDS011;36133;42.522;27.456;2022-08-19T11:20:17;14.18;;;8.00;;
50249;SDS011;36133;42.522;27.456;2022-08-19T11:22:43;11.75;;;7.40;;
50249;SDS011;36133;42.522;27.456;2022-08-19T11:25:08;10.70;;;7.47;;
50249;SDS011;36133;42.522;27.456;2022-08-19T11:27:39;14.27;;;7.72;;
50249;SDS011;36133;42.522;27.456;2022-08-19T11:30:10;15.18;;;8.98;;
50249;SDS011;36133;42.522;27.456;2022-08-19T11:32:40;14.90;;;8.10;;
50249;SDS011;36133;42.522;27.456;2022-08-19T11:35:06;9.82;;;7.78;;
50249;SDS011;36133;42.522;27.456;2022-08-19T11:37:42;13.98;;;7.88;;
50249;SDS011;36133;42.522;27.456;2022-08-19T11:40:07;11.15;;;7.88;;
50249;SDS011;36133;42.522;27.456;2022-08-19T11:42:34;11.80;;;8.70;;
50249;SDS011;36133;42.522;27.456;2022-08-19T11:45:25;12.90;;;8.32;;
50249;SDS011;36133;42.522;27.456;2022-08-19T11:47:54;11.93;;;7.97;;
50249;SDS011;36133;42.522;27.456;2022-08-19T11:50:24;12.65;;;7.90;;
50249;SDS011;36133;42.522;27.456;2022-08-19T11:52:52;11.18;;;7.82;;
50249;SDS011;36133;42.522;27.456;2022-08-19T11:55:21;11.93;;;8.10;;
50249;SDS011;36133;42.522;27.456;2022-08-19T11:57:47;10.40;;;7.35;;
50249;SDS011;36133;42.522;27.456;2022-08-19T12:00:16;14.65;;;7.60;;
50249;SDS011;36133;42.522;27.456;2022-08-19T12:02:41;10.40;;;7.30;;
50249;SDS011;36133;42.522;27.456;2022-08-19T12:05:07;10.13;;;6.63;;
50249;SDS011;36133;42.522;27.456;2022-08-19T12:07:34;13.25;;;6.90;;
50249;SDS011;36133;42.522;27.456;2022-08-19T12:10:03;11.23;;;7.07;;
50249;SDS011;36133;42.522;27.456;2022-08-19T12:12:31;14.98;;;7.32;;
50249;SDS011;36133;42.522;27.456;2022-08-19T12:15:03;13.85;;;7.25;;
50249;SDS011;36133;42.522;27.456;2022-08-19T12:17:29;14.88;;;7.40;;
50249;SDS011;36133;42.522;27.456;2022-08-19T12:19:59;12.48;;;7.57;;
50249;SDS011;36133;42.522;27.456;2022-08-19T12:22:31;10.77;;;7.20;;
50249;SDS011;36133;42.522;27.456;2022-08-19T12:24:57;13.55;;;6.70;;
50249;SDS011;36133;42.522;27.456;2022-08-19T12:27:24;8.23;;;6.28;;
50249;SDS011;36133;42.522;27.456;2022-08-19T12:29:49;9.52;;;7.00;;
50249;SDS011;36133;42.522;27.456;2022-08-19T12:32:15;20.30;;;7.40;;
50249;SDS011;36133;42.522;27.456;2022-08-19T12:34:45;13.20;;;7.25;;
50249;SDS011;36133;42.522;27.456;2022-08-19T12:37:12;7.45;;;6.40;;
50249;SDS011;36133;42.522;27.456;2022-08-19T12:39:40;15.13;;;6.75;;
50249;SDS011;36133;42.522;27.456;2022-08-19T12:42:07;10.43;;;6.38;;
50249;SDS011;36133;42.522;27.456;2022-08-19T12:44:34;16.33;;;7.32;;
50249;SDS011;36133;42.522;27.456;2022-08-19T12:47:01;17.40;;;7.05;;
50249;SDS011;36133;42.522;27.456;2022-08-19T12:49:28;10.18;;;6.68;;
50249;SDS011;36133;42.522;27.456;2022-08-19T12:51:56;13.02;;;6.43;;
50249;SDS011;36133;42.522;27.456;2022-08-19T12:54:23;10.77;;;6.78;;
50249;SDS011;36133;42.522;27.456;2022-08-19T12:56:48;17.23;;;6.70;;
50249;SDS011;36133;42.522;27.456;2022-08-19T12:59:14;10.75;;;6.78;;
50249;SDS011;36133;42.522;27.456;2022-08-19T13:01:42;14.15;;;6.57;;
50249;SDS011;36133;42.522;27.456;2022-08-19T13:04:09;14.52;;;6.38;;
50249;SDS011;36133;42.522;27.456;2022-08-19T13:06:35;12.55;;;7.05;;
50249;SDS011;36133;42.522;27.456;2022-08-19T13:09:02;12.80;;;6.28;;
50249;SDS011;36133;42.522;27.456;2022-08-19T13:11:31;16.58;;;6.80;;
50249;SDS011;36133;42.522;27.456;2022-08-19T13:13:58;12.35;;;6.40;;
50249;SDS011;36133;42.522;27.456;2022-08-19T13:16:25;13.35;;;7.47;;
50249;SDS011;36133;42.522;27.456;2022-08-19T13:18:54;15.32;;;6.32;;
50249;SDS011;36133;42.522;27.456;2022-08-19T13:21:21;11.80;;;6.70;;
50249;SDS011;36133;42.522;27.456;2022-08-19T13:23:49;8.85;;;6.50;;
50249;SDS011;36133;42.522;27.456;2022-08-19T13:26:16;11.55;;;6.45;;
50249;SDS011;36133;42.522;27.456;2022-08-19T13:28:43;13.52;;;6.47;;
50249;SDS011;36133;42.522;27.456;2022-08-19T13:31:32;16.23;;;6.90;;
50249;SDS011;36133;42.522;27.456;2022-08-19T13:34:18;18.35;;;6.50;;
50249;SDS011;36133;42.522;27.456;2022-08-19T13:36:51;10.75;;;6.30;;
50249;SDS011;36133;42.522;27.456;2022-08-19T13:39:18;13.68;;;6.82;;
50249;SDS011;36133;42.522;27.456;2022-08-19T13:41:45;11.45;;;6.63;;
50249;SDS011;36133;42.522;27.456;2022-08-19T13:44:18;13.57;;;7.53;;
50249;SDS011;36133;42.522;27.456;2022-08-19T13:46:44;17.20;;;6.90;;
50249;SDS011;36133;42.522;27.456;2022-08-19T13:49:12;14.15;;;7.07;;
50249;SDS011;36133;42.522;27.456;2022-08-19T13:51:43;12.18;;;7.90;;
50249;SDS011;36133;42.522;27.456;2022-08-19T13:54:09;16.38;;;8.13;;
50249;SDS011;36133;42.522;27.456;2022-08-19T13:56:43;14.95;;;7.22;;
50249;SDS011;36133;42.522;27.456;2022-08-19T13:59:10;10.50;;;6.93;;
50249;SDS011;36133;42.522;27.456;2022-08-19T14:01:37;12.98;;;7.25;;
50249;SDS011;36133;42.522;27.456;2022-08-19T14:04:04;11.13;;;7.55;;
50249;SDS011;36133;42.522;27.456;2022-08-19T14:06:33;11.43;;;7.10;;
50249;SDS011;36133;42.522;27.456;2022-08-19T14:09:01;11.88;;;7.22;;
50249;SDS011;36133;42.522;27.456;2022-08-19T14:11:28;10.38;;;7.30;;
50249;SDS011;36133;42.522;27.456;2022-08-19T14:13:56;16.10;;;7.85;;
50249;SDS011;36133;42.522;27.456;2022-08-19T14:16:22;13.70;;;8.05;;
50249;SDS011;36133;42.522;27.456;2022-08-19T14:18:50;15.18;;;8.07;;
50249;SDS011;36133;42.522;27.456;2022-08-19T14:21:17;12.05;;;8.00;;
50249;SDS011;36133;42.522;27.456;2022-08-19T14:23:46;14.38;;;8.02;;
50249;SDS011;36133;42.522;27.456;2022-08-19T14:26:21;15.98;;;7.78;;
50249;SDS011;36133;42.522;27.456;2022-08-19T14:28:47;10.80;;;7.65;;
50249;SDS011;36133;42.522;27.456;2022-08-19T14:31:15;14.70;;;7.57;;
50249;SDS011;36133;42.522;27.456;2022-08-19T14:33:44;14.60;;;7.90;;
50249;SDS011;36133;42.522;27.456;2022-08-19T14:36:11;18.08;;;8.00;;
50249;SDS011;36133;42.522;27.456;2022-08-19T14:38:36;14.55;;;8.10;;
50249;SDS011;36133;42.522;27.456;2022-08-19T14:41:09;14.82;;;8.25;;